sensor_id;sensor_type;location;lat;lon;timestamp;P1;durP1;ratioP1;P2;durP2;ratioP2
79702;SDS011;69172;52.352;5.006;2023-04-15T00:01:03;8.95;;;4.47;;
79702;SDS011;69172;52.352;5.006;2023-04-15T00:03:29;10.73;;;4.32;;
79702;SDS011;69172;52.352;5.006;2023-04-15T00:05:55;9.90;;;4.97;;
79702;SDS011;69172;52.352;5.006;2023-04-15T00:08:21;11.18;;;4.57;;
79702;SDS011;69172;52.352;5.006;2023-04-15T00:10:47;9.55;;;4.10;;
79702;SDS011;69172;52.352;5.006;2023-04-15T00:13:13;9.35;;;3.88;;
79702;SDS011;69172;52.352;5.006;2023-04-15T00:15:39;12.00;;;4.25;;
79702;SDS011;69172;52.352;5.006;2023-04-15T00:18:05;10.95;;;4.65;;
79702;SDS011;69172;52.352;5.006;2023-04-15T00:20:32;10.93;;;4.57;;
79702;SDS011;69172;52.352;5.006;2023-04-15T00:22:58;10.30;;;4.60;;
79702;SDS011;69172;52.352;5.006;2023-04-15T00:25:24;10.68;;;4.13;;
79702;SDS011;69172;52.352;5.006;2023-04-15T00:27:51;10.73;;;5.47;;
79702;SDS011;69172;52.352;5.006;2023-04-15T00:30:16;11.55;;;4.45;;
79702;SDS011;69172;52.352;5.006;2023-04-15T00:32:42;10.85;;;4.05;;
79702;SDS011;69172;52.352;5.006;2023-04-15T00:35:08;8.43;;;4.60;;
79702;SDS011;69172;52.352;5.006;2023-04-15T00:37:34;12.35;;;4.80;;
79702;SDS011;69172;52.352;5.006;2023-04-15T00:39:59;13.20;;;5.72;;
79702;SDS011;69172;52.352;5.006;2023-04-15T00:42:25;9.18;;;4.53;;
79702;SDS011;69172;52.352;5.006;2023-04-15T00:44:51;10.57;;;4.72;;
79702;SDS011;69172;52.352;5.006;2023-04-15T00:47:17;13.70;;;4.30;;
79702;SDS011;69172;52.352;5.006;2023-04-15T00:49:43;9.20;;;3.97;;
79702;SDS011;69172;52.352;5.006;2023-04-15T00:52:08;11.88;;;4.25;;
79702;SDS011;69172;52.352;5.006;2023-04-15T00:54:34;10.32;;;4.90;;
79702;SDS011;69172;52.352;5.006;2023-04-15T00:56:59;11.55;;;4.40;;
79702;SDS011;69172;52.352;5.006;2023-04-15T00:59:26;9.77;;;4.07;;
79702;SDS011;69172;52.352;5.006;2023-04-15T01:01:52;10.05;;;3.95;;
79702;SDS011;69172;52.352;5.006;2023-04-15T01:04:17;10.60;;;4.38;;
79702;SDS011;69172;52.352;5.006;2023-04-15T01:06:43;8.55;;;4.05;;
79702;SDS011;69172;52.352;5.006;2023-04-15T01:09:09;10.77;;;4.18;;
79702;SDS011;69172;52.352;5.006;2023-04-15T01:11:35;11.57;;;4.43;;
79702;SDS011;69172;52.352;5.006;2023-04-15T01:14:01;14.60;;;4.85;;
79702;SDS011;69172;52.352;5.006;2023-04-15T01:16:27;9.20;;;4.75;;
79702;SDS011;69172;52.352;5.006;2023-04-15T01:18:52;8.63;;;4.30;;
79702;SDS011;69172;52.352;5.006;2023-04-15T01:21:18;13.35;;;5.07;;
79702;SDS011;69172;52.352;5.006;2023-04-15T01:23:44;10.35;;;5.03;;
79702;SDS011;69172;52.352;5.006;2023-04-15T01:26:11;12.52;;;4.93;;
79702;SDS011;69172;52.352;5.006;2023-04-15T01:28:37;11.68;;;4.50;;
79702;SDS011;69172;52.352;5.006;2023-04-15T01:31:12;13.23;;;4.68;;
79702;SDS011;69172;52.352;5.006;2023-04-15T01:33:39;11.90;;;4.65;;
79702;SDS011;69172;52.352;5.006;2023-04-15T01:36:06;14.60;;;5.93;;
79702;SDS011;69172;52.352;5.006;2023-04-15T01:38:34;11.43;;;5.38;;
79702;SDS011;69172;52.352;5.006;2023-04-15T01:41:00;9.38;;;4.38;;
79702;SDS011;69172;52.352;5.006;2023-04-15T01:43:28;10.75;;;4.88;;
79702;SDS011;69172;52.352;5.006;2023-04-15T01:45:53;10.57;;;5.30;;
79702;SDS011;69172;52.352;5.006;2023-04-15T01:48:19;10.25;;;4.32;;
79702;SDS011;69172;52.352;5.006;2023-04-15T01:50:45;14.15;;;5.45;;
79702;SDS011;69172;52.352;5.006;2023-04-15T01:53:11;14.20;;;5.45;;
79702;SDS011;69172;52.352;5.006;2023-04-15T01:55:36;11.60;;;5.32;;
79702;SDS011;69172;52.352;5.006;2023-04-15T01:58:02;11.68;;;4.75;;
79702;SDS011;69172;52.352;5.006;2023-04-15T02:00:27;11.38;;;5.47;;
79702;SDS011;69172;52.352;5.006;2023-04-15T02:02:54;12.93;;;5.82;;
79702;SDS011;69172;52.352;5.006;2023-04-15T02:05:19;11.55;;;4.88;;
79702;SDS011;69172;52.352;5.006;2023-04-15T02:07:44;11.88;;;5.47;;
79702;SDS011;69172;52.352;5.006;2023-04-15T02:10:10;10.82;;;5.50;;
79702;SDS011;69172;52.352;5.006;2023-04-15T02:12:37;10.90;;;5.25;;
79702;SDS011;69172;52.352;5.006;2023-04-15T02:15:03;15.73;;;5.45;;
79702;SDS011;69172;52.352;5.006;2023-04-15T02:17:29;11.10;;;5.00;;
79702;SDS011;69172;52.352;5.006;2023-04-15T02:19:55;11.75;;;5.85;;
79702;SDS011;69172;52.352;5.006;2023-04-15T02:22:21;11.52;;;5.05;;
79702;SDS011;69172;52.352;5.006;2023-04-15T02:24:46;12.05;;;6.20;;
79702;SDS011;69172;52.352;5.006;2023-04-15T02:27:15;14.50;;;5.93;;
79702;SDS011;69172;52.352;5.006;2023-04-15T02:29:42;14.98;;;5.20;;
79702;SDS011;69172;52.352;5.006;2023-04-15T02:32:08;10.13;;;4.88;;
79702;SDS011;69172;52.352;5.006;2023-04-15T02:34:35;9.07;;;4.88;;
79702;SDS011;69172;52.352;5.006;2023-04-15T02:37:03;11.57;;;5.25;;
79702;SDS011;69172;52.352;5.006;2023-04-15T02:39:29;10.43;;;5.35;;
79702;SDS011;69172;52.352;5.006;2023-04-15T02:41:55;12.45;;;5.28;;
79702;SDS011;69172;52.352;5.006;2023-04-15T02:44:23;11.75;;;5.40;;
79702;SDS011;69172;52.352;5.006;2023-04-15T02:46:48;10.23;;;4.63;;
79702;SDS011;69172;52.352;5.006;2023-04-15T02:49:16;11.25;;;5.22;;
79702;SDS011;69172;52.352;5.006;2023-04-15T02:51:42;10.63;;;4.88;;
79702;SDS011;69172;52.352;5.006;2023-04-15T02:54:09;9.73;;;4.85;;
79702;SDS011;69172;52.352;5.006;2023-04-15T02:56:34;11.65;;;4.68;;
79702;SDS011;69172;52.352;5.006;2023-04-15T02:59:00;9.13;;;5.18;;
79702;SDS011;69172;52.352;5.006;2023-04-15T03:01:25;13.27;;;5.50;;
79702;SDS011;69172;52.352;5.006;2023-04-15T03:03:51;11.07;;;5.57;;
79702;SDS011;69172;52.352;5.006;2023-04-15T03:06:16;14.18;;;5.93;;
79702;SDS011;69172;52.352;5.006;2023-04-15T03:08:42;14.82;;;5.70;;
79702;SDS011;69172;52.352;5.006;2023-04-15T03:11:07;11.82;;;4.97;;
79702;SDS011;69172;52.352;5.006;2023-04-15T03:13:32;12.05;;;5.78;;
79702;SDS011;69172;52.352;5.006;2023-04-15T03:15:58;11.13;;;5.57;;
79702;SDS011;69172;52.352;5.006;2023-04-15T03:18:23;14.70;;;6.28;;
79702;SDS011;69172;52.352;5.006;2023-04-15T03:20:49;14.18;;;5.90;;
79702;SDS011;69172;52.352;5.006;2023-04-15T03:23:14;13.65;;;6.00;;
79702;SDS011;69172;52.352;5.006;2023-04-15T03:25:39;11.38;;;6.07;;
79702;SDS011;69172;52.352;5.006;2023-04-15T03:28:05;13.70;;;6.72;;
79702;SDS011;69172;52.352;5.006;2023-04-15T03:30:31;13.38;;;6.82;;
79702;SDS011;69172;52.352;5.006;2023-04-15T03:32:56;11.63;;;6.15;;
79702;SDS011;69172;52.352;5.006;2023-04-15T03:35:21;11.60;;;6.00;;
79702;SDS011;69172;52.352;5.006;2023-04-15T03:37:47;12.45;;;5.45;;
79702;SDS011;69172;52.352;5.006;2023-04-15T03:40:13;11.30;;;5.22;;
79702;SDS011;69172;52.352;5.006;2023-04-15T03:42:38;13.20;;;6.00;;
79702;SDS011;69172;52.352;5.006;2023-04-15T03:45:04;13.82;;;6.88;;
79702;SDS011;69172;52.352;5.006;2023-04-15T03:47:29;13.80;;;6.75;;
79702;SDS011;69172;52.352;5.006;2023-04-15T03:49:56;13.60;;;6.38;;
79702;SDS011;69172;52.352;5.006;2023-04-15T03:52:21;12.90;;;5.75;;
79702;SDS011;69172;52.352;5.006;2023-04-15T03:54:46;14.15;;;6.60;;
79702;SDS011;69172;52.352;5.006;2023-04-15T03:57:11;13.73;;;7.05;;
79702;SDS011;69172;52.352;5.006;2023-04-15T03:59:37;12.80;;;5.25;;
79702;SDS011;69172;52.352;5.006;2023-04-15T04:02:03;12.00;;;6.43;;
79702;SDS011;69172;52.352;5.006;2023-04-15T04:04:28;12.18;;;6.28;;
79702;SDS011;69172;52.352;5.006;2023-04-15T04:06:54;13.50;;;6.32;;
79702;SDS011;69172;52.352;5.006;2023-04-15T04:09:19;14.45;;;7.32;;
79702;SDS011;69172;52.352;5.006;2023-04-15T04:11:45;10.98;;;6.15;;
79702;SDS011;69172;52.352;5.006;2023-04-15T04:14:10;13.80;;;6.82;;
79702;SDS011;69172;52.352;5.006;2023-04-15T04:16:35;13.90;;;6.72;;
79702;SDS011;69172;52.352;5.006;2023-04-15T04:19:01;16.10;;;7.13;;
79702;SDS011;69172;52.352;5.006;2023-04-15T04:21:26;14.85;;;6.32;;
79702;SDS011;69172;52.352;5.006;2023-04-15T04:23:52;12.13;;;6.90;;
79702;SDS011;69172;52.352;5.006;2023-04-15T04:26:17;13.32;;;6.65;;
79702;SDS011;69172;52.352;5.006;2023-04-15T04:28:43;13.40;;;6.63;;
79702;SDS011;69172;52.352;5.006;2023-04-15T04:31:09;12.57;;;6.22;;
79702;SDS011;69172;52.352;5.006;2023-04-15T04:33:34;12.05;;;6.47;;
79702;SDS011;69172;52.352;5.006;2023-04-15T04:36:00;14.10;;;6.50;;
79702;SDS011;69172;52.352;5.006;2023-04-15T04:38:25;16.25;;;6.38;;
79702;SDS011;69172;52.352;5.006;2023-04-15T04:40:51;14.48;;;6.65;;
79702;SDS011;69172;52.352;5.006;2023-04-15T04:43:16;15.40;;;6.57;;
79702;SDS011;69172;52.352;5.006;2023-04-15T04:45:42;16.00;;;6.55;;
79702;SDS011;69172;52.352;5.006;2023-04-15T04:48:07;14.10;;;6.38;;
79702;SDS011;69172;52.352;5.006;2023-04-15T04:50:34;15.82;;;7.07;;
79702;SDS011;69172;52.352;5.006;2023-04-15T04:53:00;13.65;;;6.72;;
79702;SDS011;69172;52.352;5.006;2023-04-15T04:55:26;15.88;;;7.93;;
79702;SDS011;69172;52.352;5.006;2023-04-15T04:57:52;14.65;;;7.38;;
79702;SDS011;69172;52.352;5.006;2023-04-15T05:00:18;14.10;;;7.18;;
79702;SDS011;69172;52.352;5.006;2023-04-15T05:02:44;16.58;;;7.97;;
79702;SDS011;69172;52.352;5.006;2023-04-15T05:05:10;14.40;;;7.13;;
79702;SDS011;69172;52.352;5.006;2023-04-15T05:07:37;14.55;;;7.07;;
79702;SDS011;69172;52.352;5.006;2023-04-15T05:10:03;14.38;;;7.43;;
79702;SDS011;69172;52.352;5.006;2023-04-15T05:12:29;13.38;;;6.68;;
79702;SDS011;69172;52.352;5.006;2023-04-15T05:14:54;17.48;;;8.40;;
79702;SDS011;69172;52.352;5.006;2023-04-15T05:17:20;12.60;;;6.75;;
79702;SDS011;69172;52.352;5.006;2023-04-15T05:19:45;13.38;;;7.75;;
79702;SDS011;69172;52.352;5.006;2023-04-15T05:22:11;15.05;;;8.52;;
79702;SDS011;69172;52.352;5.006;2023-04-15T05:24:36;15.40;;;8.23;;
79702;SDS011;69172;52.352;5.006;2023-04-15T05:27:01;15.55;;;7.68;;
79702;SDS011;69172;52.352;5.006;2023-04-15T05:29:27;15.82;;;8.02;;
79702;SDS011;69172;52.352;5.006;2023-04-15T05:31:53;13.95;;;8.38;;
79702;SDS011;69172;52.352;5.006;2023-04-15T05:34:18;13.45;;;7.60;;
79702;SDS011;69172;52.352;5.006;2023-04-15T05:36:44;15.40;;;7.90;;
79702;SDS011;69172;52.352;5.006;2023-04-15T05:39:09;16.50;;;8.20;;
79702;SDS011;69172;52.352;5.006;2023-04-15T05:41:35;16.70;;;8.10;;
79702;SDS011;69172;52.352;5.006;2023-04-15T05:44:00;14.25;;;7.50;;
79702;SDS011;69172;52.352;5.006;2023-04-15T05:46:26;15.65;;;7.95;;
79702;SDS011;69172;52.352;5.006;2023-04-15T05:48:51;16.52;;;8.95;;
79702;SDS011;69172;52.352;5.006;2023-04-15T05:51:17;17.95;;;9.13;;
79702;SDS011;69172;52.352;5.006;2023-04-15T05:53:42;16.40;;;9.00;;
79702;SDS011;69172;52.352;5.006;2023-04-15T05:56:08;15.40;;;8.75;;
79702;SDS011;69172;52.352;5.006;2023-04-15T05:58:34;15.80;;;9.05;;
79702;SDS011;69172;52.352;5.006;2023-04-15T06:00:59;14.98;;;8.75;;
79702;SDS011;69172;52.352;5.006;2023-04-15T06:03:25;15.38;;;8.77;;
79702;SDS011;69172;52.352;5.006;2023-04-15T06:05:50;14.02;;;8.32;;
79702;SDS011;69172;52.352;5.006;2023-04-15T06:08:15;17.02;;;9.15;;
79702;SDS011;69172;52.352;5.006;2023-04-15T06:10:41;16.77;;;8.02;;
79702;SDS011;69172;52.352;5.006;2023-04-15T06:13:06;14.38;;;8.50;;
79702;SDS011;69172;52.352;5.006;2023-04-15T06:15:32;17.10;;;9.20;;
79702;SDS011;69172;52.352;5.006;2023-04-15T06:17:58;14.02;;;7.63;;
79702;SDS011;69172;52.352;5.006;2023-04-15T06:20:24;14.43;;;8.43;;
79702;SDS011;69172;52.352;5.006;2023-04-15T06:22:49;19.85;;;9.15;;
79702;SDS011;69172;52.352;5.006;2023-04-15T06:25:15;16.13;;;8.55;;
79702;SDS011;69172;52.352;5.006;2023-04-15T06:27:40;17.90;;;8.23;;
79702;SDS011;69172;52.352;5.006;2023-04-15T06:30:06;14.73;;;8.60;;
79702;SDS011;69172;52.352;5.006;2023-04-15T06:32:32;15.10;;;8.20;;
79702;SDS011;69172;52.352;5.006;2023-04-15T06:34:58;14.88;;;8.05;;
79702;SDS011;69172;52.352;5.006;2023-04-15T06:37:23;15.88;;;8.75;;
79702;SDS011;69172;52.352;5.006;2023-04-15T06:39:48;15.40;;;9.70;;
79702;SDS011;69172;52.352;5.006;2023-04-15T06:42:14;16.15;;;9.05;;
79702;SDS011;69172;52.352;5.006;2023-04-15T06:44:40;15.52;;;8.27;;
79702;SDS011;69172;52.352;5.006;2023-04-15T06:47:05;15.35;;;8.43;;
79702;SDS011;69172;52.352;5.006;2023-04-15T06:49:31;16.65;;;8.38;;
79702;SDS011;69172;52.352;5.006;2023-04-15T06:51:57;16.17;;;8.57;;
79702;SDS011;69172;52.352;5.006;2023-04-15T06:54:24;16.58;;;7.22;;
79702;SDS011;69172;52.352;5.006;2023-04-15T06:56:50;15.10;;;7.35;;
79702;SDS011;69172;52.352;5.006;2023-04-15T06:59:16;13.63;;;6.53;;
79702;SDS011;69172;52.352;5.006;2023-04-15T07:01:42;13.00;;;6.88;;
79702;SDS011;69172;52.352;5.006;2023-04-15T07:04:07;13.65;;;6.82;;
79702;SDS011;69172;52.352;5.006;2023-04-15T07:06:33;12.63;;;6.40;;
79702;SDS011;69172;52.352;5.006;2023-04-15T07:08:59;13.52;;;7.10;;
79702;SDS011;69172;52.352;5.006;2023-04-15T07:11:25;13.05;;;6.80;;
79702;SDS011;69172;52.352;5.006;2023-04-15T07:13:51;14.57;;;7.57;;
79702;SDS011;69172;52.352;5.006;2023-04-15T07:16:16;14.30;;;6.40;;
79702;SDS011;69172;52.352;5.006;2023-04-15T07:18:42;14.98;;;7.95;;
79702;SDS011;69172;52.352;5.006;2023-04-15T07:21:07;13.75;;;7.13;;
79702;SDS011;69172;52.352;5.006;2023-04-15T07:23:33;14.00;;;6.55;;
79702;SDS011;69172;52.352;5.006;2023-04-15T07:25:58;15.75;;;7.35;;
79702;SDS011;69172;52.352;5.006;2023-04-15T07:28:25;14.00;;;7.05;;
79702;SDS011;69172;52.352;5.006;2023-04-15T07:30:51;13.70;;;7.43;;
79702;SDS011;69172;52.352;5.006;2023-04-15T07:33:16;13.55;;;7.82;;
79702;SDS011;69172;52.352;5.006;2023-04-15T07:35:41;15.27;;;7.07;;
79702;SDS011;69172;52.352;5.006;2023-04-15T07:38:07;14.10;;;7.65;;
79702;SDS011;69172;52.352;5.006;2023-04-15T07:40:32;17.65;;;7.25;;
79702;SDS011;69172;52.352;5.006;2023-04-15T07:42:58;16.83;;;7.80;;
79702;SDS011;69172;52.352;5.006;2023-04-15T07:45:23;17.27;;;8.70;;
79702;SDS011;69172;52.352;5.006;2023-04-15T07:47:49;17.80;;;7.78;;
79702;SDS011;69172;52.352;5.006;2023-04-15T07:50:15;15.05;;;7.22;;
79702;SDS011;69172;52.352;5.006;2023-04-15T07:52:41;12.45;;;5.90;;
79702;SDS011;69172;52.352;5.006;2023-04-15T07:55:08;15.15;;;6.10;;
79702;SDS011;69172;52.352;5.006;2023-04-15T07:57:34;13.43;;;6.78;;
79702;SDS011;69172;52.352;5.006;2023-04-15T08:00:00;14.73;;;6.93;;
79702;SDS011;69172;52.352;5.006;2023-04-15T08:02:27;16.52;;;7.25;;
79702;SDS011;69172;52.352;5.006;2023-04-15T08:04:53;14.85;;;6.78;;
79702;SDS011;69172;52.352;5.006;2023-04-15T08:07:18;14.52;;;7.18;;
79702;SDS011;69172;52.352;5.006;2023-04-15T08:09:44;16.92;;;7.25;;
79702;SDS011;69172;52.352;5.006;2023-04-15T08:12:10;12.73;;;6.28;;
79702;SDS011;69172;52.352;5.006;2023-04-15T08:14:37;12.23;;;5.97;;
79702;SDS011;69172;52.352;5.006;2023-04-15T08:17:03;12.48;;;5.80;;
79702;SDS011;69172;52.352;5.006;2023-04-15T08:19:29;12.38;;;5.28;;
79702;SDS011;69172;52.352;5.006;2023-04-15T08:21:55;11.18;;;5.55;;
79702;SDS011;69172;52.352;5.006;2023-04-15T08:24:21;11.00;;;4.93;;
79702;SDS011;69172;52.352;5.006;2023-04-15T08:26:47;12.65;;;5.90;;
79702;SDS011;69172;52.352;5.006;2023-04-15T08:29:12;10.95;;;5.40;;
79702;SDS011;69172;52.352;5.006;2023-04-15T08:31:38;11.23;;;5.70;;
79702;SDS011;69172;52.352;5.006;2023-04-15T08:34:03;9.48;;;4.90;;
79702;SDS011;69172;52.352;5.006;2023-04-15T08:36:29;10.88;;;5.60;;
79702;SDS011;69172;52.352;5.006;2023-04-15T08:38:57;9.13;;;4.57;;
79702;SDS011;69172;52.352;5.006;2023-04-15T08:41:24;11.82;;;5.38;;
79702;SDS011;69172;52.352;5.006;2023-04-15T08:43:52;11.90;;;5.75;;
79702;SDS011;69172;52.352;5.006;2023-04-15T08:46:20;10.60;;;5.10;;
79702;SDS011;69172;52.352;5.006;2023-04-15T08:48:47;11.60;;;5.93;;
79702;SDS011;69172;52.352;5.006;2023-04-15T08:51:13;12.88;;;6.82;;
79702;SDS011;69172;52.352;5.006;2023-04-15T08:53:40;13.75;;;5.68;;
79702;SDS011;69172;52.352;5.006;2023-04-15T08:56:07;11.65;;;5.88;;
79702;SDS011;69172;52.352;5.006;2023-04-15T08:58:35;12.88;;;6.10;;
79702;SDS011;69172;52.352;5.006;2023-04-15T09:01:02;10.50;;;5.20;;
79702;SDS011;69172;52.352;5.006;2023-04-15T09:03:27;12.98;;;5.93;;
79702;SDS011;69172;52.352;5.006;2023-04-15T09:05:53;13.55;;;5.57;;
79702;SDS011;69172;52.352;5.006;2023-04-15T09:08:18;11.30;;;5.57;;
79702;SDS011;69172;52.352;5.006;2023-04-15T09:10:44;11.68;;;5.68;;
79702;SDS011;69172;52.352;5.006;2023-04-15T09:13:10;16.05;;;6.57;;
79702;SDS011;69172;52.352;5.006;2023-04-15T09:15:36;13.80;;;6.68;;
79702;SDS011;69172;52.352;5.006;2023-04-15T09:18:03;13.30;;;6.18;;
79702;SDS011;69172;52.352;5.006;2023-04-15T09:20:30;10.18;;;4.95;;
79702;SDS011;69172;52.352;5.006;2023-04-15T09:23:03;13.82;;;5.35;;
79702;SDS011;69172;52.352;5.006;2023-04-15T09:25:37;10.80;;;4.80;;
79702;SDS011;69172;52.352;5.006;2023-04-15T09:28:07;12.77;;;5.65;;
79702;SDS011;69172;52.352;5.006;2023-04-15T09:30:33;10.43;;;5.15;;
79702;SDS011;69172;52.352;5.006;2023-04-15T09:33:01;14.93;;;5.97;;
79702;SDS011;69172;52.352;5.006;2023-04-15T09:35:28;11.45;;;6.00;;
79702;SDS011;69172;52.352;5.006;2023-04-15T09:38:07;11.35;;;5.95;;
79702;SDS011;69172;52.352;5.006;2023-04-15T09:40:34;13.18;;;6.40;;
79702;SDS011;69172;52.352;5.006;2023-04-15T09:43:01;9.65;;;4.72;;
79702;SDS011;69172;52.352;5.006;2023-04-15T09:45:29;11.20;;;5.00;;
79702;SDS011;69172;52.352;5.006;2023-04-15T09:50:47;11.73;;;5.88;;
79702;SDS011;69172;52.352;5.006;2023-04-15T09:53:17;12.88;;;5.85;;
79702;SDS011;69172;52.352;5.006;2023-04-15T09:55:53;11.63;;;4.85;;
79702;SDS011;69172;52.352;5.006;2023-04-15T09:58:21;12.57;;;5.22;;
79702;SDS011;69172;52.352;5.006;2023-04-15T10:00:52;11.02;;;4.43;;
79702;SDS011;69172;52.352;5.006;2023-04-15T10:03:20;12.15;;;4.88;;
79702;SDS011;69172;52.352;5.006;2023-04-15T10:05:48;9.68;;;4.55;;
79702;SDS011;69172;52.352;5.006;2023-04-15T10:08:18;9.38;;;4.10;;
79702;SDS011;69172;52.352;5.006;2023-04-15T10:10:46;10.43;;;4.35;;
79702;SDS011;69172;52.352;5.006;2023-04-15T10:13:20;10.93;;;4.65;;
79702;SDS011;69172;52.352;5.006;2023-04-15T10:15:57;9.20;;;3.97;;
79702;SDS011;69172;52.352;5.006;2023-04-15T10:18:25;9.63;;;4.57;;
79702;SDS011;69172;52.352;5.006;2023-04-15T10:20:51;9.85;;;4.43;;
79702;SDS011;69172;52.352;5.006;2023-04-15T10:23:18;10.23;;;4.13;;
79702;SDS011;69172;52.352;5.006;2023-04-15T10:25:45;11.43;;;4.40;;
79702;SDS011;69172;52.352;5.006;2023-04-15T10:28:10;10.55;;;4.95;;
79702;SDS011;69172;52.352;5.006;2023-04-15T10:30:36;10.80;;;4.50;;
79702;SDS011;69172;52.352;5.006;2023-04-15T10:33:03;10.35;;;4.18;;
79702;SDS011;69172;52.352;5.006;2023-04-15T10:35:31;12.32;;;4.35;;
79702;SDS011;69172;52.352;5.006;2023-04-15T10:37:59;11.90;;;4.57;;
79702;SDS011;69172;52.352;5.006;2023-04-15T10:40:26;8.52;;;3.25;;
79702;SDS011;69172;52.352;5.006;2023-04-15T10:42:53;9.25;;;3.80;;
79702;SDS011;69172;52.352;5.006;2023-04-15T10:45:19;8.68;;;3.65;;
79702;SDS011;69172;52.352;5.006;2023-04-15T10:47:45;15.32;;;5.15;;
79702;SDS011;69172;52.352;5.006;2023-04-15T10:50:15;10.90;;;4.10;;
79702;SDS011;69172;52.352;5.006;2023-04-15T10:52:43;9.15;;;4.45;;
79702;SDS011;69172;52.352;5.006;2023-04-15T10:55:17;11.18;;;4.20;;
79702;SDS011;69172;52.352;5.006;2023-04-15T10:57:44;11.68;;;3.63;;
79702;SDS011;69172;52.352;5.006;2023-04-15T11:00:11;10.32;;;3.83;;
79702;SDS011;69172;52.352;5.006;2023-04-15T11:02:54;9.85;;;3.83;;
79702;SDS011;69172;52.352;5.006;2023-04-15T11:08:06;8.82;;;3.70;;
79702;SDS011;69172;52.352;5.006;2023-04-15T11:13:01;9.25;;;3.25;;
79702;SDS011;69172;52.352;5.006;2023-04-15T11:15:35;8.02;;;3.70;;
79702;SDS011;69172;52.352;5.006;2023-04-15T11:20:49;10.70;;;3.83;;
79702;SDS011;69172;52.352;5.006;2023-04-15T11:23:19;8.85;;;3.42;;
79702;SDS011;69172;52.352;5.006;2023-04-15T11:25:51;8.38;;;3.25;;
79702;SDS011;69172;52.352;5.006;2023-04-15T11:28:19;7.22;;;3.17;;
79702;SDS011;69172;52.352;5.006;2023-04-15T11:30:44;7.05;;;2.97;;
79702;SDS011;69172;52.352;5.006;2023-04-15T11:33:10;8.23;;;3.30;;
79702;SDS011;69172;52.352;5.006;2023-04-15T11:35:36;7.22;;;2.75;;
79702;SDS011;69172;52.352;5.006;2023-04-15T11:38:07;9.15;;;3.72;;
79702;SDS011;69172;52.352;5.006;2023-04-15T11:40:34;7.07;;;2.55;;
79702;SDS011;69172;52.352;5.006;2023-04-15T11:43:16;9.27;;;3.47;;
79702;SDS011;69172;52.352;5.006;2023-04-15T11:45:52;8.05;;;3.17;;
79702;SDS011;69172;52.352;5.006;2023-04-15T11:48:18;9.30;;;3.28;;
79702;SDS011;69172;52.352;5.006;2023-04-15T11:50:45;8.85;;;3.58;;
79702;SDS011;69172;52.352;5.006;2023-04-15T11:55:46;9.00;;;2.83;;
79702;SDS011;69172;52.352;5.006;2023-04-15T11:58:14;8.05;;;2.75;;
79702;SDS011;69172;52.352;5.006;2023-04-15T12:00:44;6.60;;;2.63;;
79702;SDS011;69172;52.352;5.006;2023-04-15T12:03:23;7.30;;;2.17;;
79702;SDS011;69172;52.352;5.006;2023-04-15T12:11:37;5.72;;;2.45;;
79702;SDS011;69172;52.352;5.006;2023-04-15T12:16:43;6.50;;;2.00;;
79702;SDS011;69172;52.352;5.006;2023-04-15T12:19:11;6.22;;;2.45;;
79702;SDS011;69172;52.352;5.006;2023-04-15T12:21:39;7.15;;;2.05;;
79702;SDS011;69172;52.352;5.006;2023-04-15T12:24:07;5.10;;;2.15;;
79702;SDS011;69172;52.352;5.006;2023-04-15T12:26:41;5.35;;;1.77;;
79702;SDS011;69172;52.352;5.006;2023-04-15T12:29:07;4.88;;;1.83;;
79702;SDS011;69172;52.352;5.006;2023-04-15T12:31:33;6.95;;;1.90;;
79702;SDS011;69172;52.352;5.006;2023-04-15T12:34:00;5.60;;;1.70;;
79702;SDS011;69172;52.352;5.006;2023-04-15T12:36:25;6.07;;;2.08;;
79702;SDS011;69172;52.352;5.006;2023-04-15T12:38:52;6.15;;;2.08;;
79702;SDS011;69172;52.352;5.006;2023-04-15T12:41:18;5.53;;;1.95;;
79702;SDS011;69172;52.352;5.006;2023-04-15T12:43:44;6.95;;;2.20;;
79702;SDS011;69172;52.352;5.006;2023-04-15T12:46:11;8.05;;;2.22;;
79702;SDS011;69172;52.352;5.006;2023-04-15T12:48:38;7.72;;;2.20;;
79702;SDS011;69172;52.352;5.006;2023-04-15T12:51:04;9.02;;;2.20;;
79702;SDS011;69172;52.352;5.006;2023-04-15T12:53:30;5.88;;;2.20;;
79702;SDS011;69172;52.352;5.006;2023-04-15T12:55:55;8.23;;;2.00;;
79702;SDS011;69172;52.352;5.006;2023-04-15T12:58:21;6.85;;;2.00;;
79702;SDS011;69172;52.352;5.006;2023-04-15T13:00:46;8.68;;;2.20;;
79702;SDS011;69172;52.352;5.006;2023-04-15T13:03:13;9.65;;;2.47;;
79702;SDS011;69172;52.352;5.006;2023-04-15T13:05:39;7.85;;;2.50;;
79702;SDS011;69172;52.352;5.006;2023-04-15T13:08:04;4.80;;;1.80;;
79702;SDS011;69172;52.352;5.006;2023-04-15T13:10:30;6.47;;;1.98;;
79702;SDS011;69172;52.352;5.006;2023-04-15T13:12:56;5.28;;;2.10;;
79702;SDS011;69172;52.352;5.006;2023-04-15T13:15:22;5.20;;;1.63;;
79702;SDS011;69172;52.352;5.006;2023-04-15T13:17:47;4.45;;;1.38;;
79702;SDS011;69172;52.352;5.006;2023-04-15T13:20:13;5.60;;;1.40;;
79702;SDS011;69172;52.352;5.006;2023-04-15T13:22:40;5.53;;;1.60;;
79702;SDS011;69172;52.352;5.006;2023-04-15T13:25:07;7.32;;;1.63;;
79702;SDS011;69172;52.352;5.006;2023-04-15T13:27:33;4.53;;;1.40;;
79702;SDS011;69172;52.352;5.006;2023-04-15T13:29:59;6.05;;;1.27;;
79702;SDS011;69172;52.352;5.006;2023-04-15T13:32:24;3.03;;;1.50;;
79702;SDS011;69172;52.352;5.006;2023-04-15T13:34:50;5.57;;;1.42;;
79702;SDS011;69172;52.352;5.006;2023-04-15T13:37:17;6.93;;;1.50;;
79702;SDS011;69172;52.352;5.006;2023-04-15T13:39:42;3.90;;;1.15;;
79702;SDS011;69172;52.352;5.006;2023-04-15T13:42:08;3.55;;;1.00;;
79702;SDS011;69172;52.352;5.006;2023-04-15T13:44:33;5.80;;;1.02;;
79702;SDS011;69172;52.352;5.006;2023-04-15T13:46:59;2.83;;;1.05;;
79702;SDS011;69172;52.352;5.006;2023-04-15T13:49:24;5.47;;;1.30;;
79702;SDS011;69172;52.352;5.006;2023-04-15T13:51:50;3.30;;;1.13;;
79702;SDS011;69172;52.352;5.006;2023-04-15T13:54:16;7.60;;;1.73;;
79702;SDS011;69172;52.352;5.006;2023-04-15T13:56:41;7.25;;;1.42;;
79702;SDS011;69172;52.352;5.006;2023-04-15T13:59:06;7.40;;;1.30;;
79702;SDS011;69172;52.352;5.006;2023-04-15T14:01:33;3.38;;;1.27;;
79702;SDS011;69172;52.352;5.006;2023-04-15T14:03:59;6.10;;;1.52;;
79702;SDS011;69172;52.352;5.006;2023-04-15T14:06:24;6.85;;;1.95;;
79702;SDS011;69172;52.352;5.006;2023-04-15T14:08:51;4.72;;;1.25;;
79702;SDS011;69172;52.352;5.006;2023-04-15T14:11:16;5.32;;;1.38;;
79702;SDS011;69172;52.352;5.006;2023-04-15T14:13:42;3.80;;;1.20;;
79702;SDS011;69172;52.352;5.006;2023-04-15T14:16:07;5.93;;;1.65;;
79702;SDS011;69172;52.352;5.006;2023-04-15T14:18:33;5.90;;;1.30;;
79702;SDS011;69172;52.352;5.006;2023-04-15T14:20:58;4.53;;;1.40;;
79702;SDS011;69172;52.352;5.006;2023-04-15T14:23:24;6.32;;;1.63;;
79702;SDS011;69172;52.352;5.006;2023-04-15T14:25:49;5.20;;;1.58;;
79702;SDS011;69172;52.352;5.006;2023-04-15T14:28:16;4.07;;;1.60;;
79702;SDS011;69172;52.352;5.006;2023-04-15T14:30:41;6.80;;;2.30;;
79702;SDS011;69172;52.352;5.006;2023-04-15T14:33:06;8.23;;;1.80;;
79702;SDS011;69172;52.352;5.006;2023-04-15T14:35:32;5.78;;;1.60;;
79702;SDS011;69172;52.352;5.006;2023-04-15T14:37:57;6.38;;;1.98;;
79702;SDS011;69172;52.352;5.006;2023-04-15T14:40:22;7.78;;;1.40;;
79702;SDS011;69172;52.352;5.006;2023-04-15T14:42:48;4.45;;;1.60;;
79702;SDS011;69172;52.352;5.006;2023-04-15T14:45:13;6.13;;;1.42;;
79702;SDS011;69172;52.352;5.006;2023-04-15T14:47:38;7.43;;;1.67;;
79702;SDS011;69172;52.352;5.006;2023-04-15T14:50:04;5.82;;;1.60;;
79702;SDS011;69172;52.352;5.006;2023-04-15T14:52:30;11.35;;;2.40;;
79702;SDS011;69172;52.352;5.006;2023-04-15T14:55:05;5.32;;;1.50;;